Time;durP1;ratioP1;P1;durP2;ratioP2;P2;SDS_P1;SDS_P2;PMS_P1;PMS_P2;Temp;Humidity;BMP_temperature;BMP_pressure;BME280_temperature;BME280_humidity;BME280_pressure;Samples;Min_cycle;Max_cycle;Signal;HPM_P1;HPM_P2
2023/08/09 00:02:17;;;;;;;1.92;1.20;;;;;;;;;;5014505;28;20038;-83
2023/08/09 00:04:43;;;;;;;2.20;1.20;;;;;;;;;;5005943;28;20083;-81
2023/08/09 00:07:08;;;;;;;2.10;1.20;;;;;;;;;;5006748;28;20045;-83
2023/08/09 00:09:34;;;;;;;2.13;1.20;;;;;;;;;;5013316;28;20088;-83
2023/08/09 00:11:59;;;;;;;1.40;1.00;;;;;;;;;;5014680;28;20077;-83
2023/08/09 00:14:25;;;;;;;4.35;1.48;;;;;;;;;;5014719;28;20061;-82
2023/08/09 00:16:50;;;;;;;2.90;1.20;;;;;;;;;;5013156;28;20065;-84
2023/08/09 00:19:16;;;;;;;2.17;1.27;;;;;;;;;;5015236;28;20034;-84
2023/08/09 00:21:41;;;;;;;2.22;1.30;;;;;;;;;;5007517;28;20038;-83
2023/08/09 00:24:07;;;;;;;2.58;1.30;;;;;;;;;;5014244;28;20022;-84
2023/08/09 00:26:32;;;;;;;1.63;1.10;;;;;;;;;;5010955;28;20522;-83
2023/08/09 00:28:58;;;;;;;1.92;1.20;;;;;;;;;;5007187;28;20034;-82
2023/08/09 00:31:23;;;;;;;2.08;1.35;;;;;;;;;;5005266;28;20061;-82
2023/08/09 00:33:49;;;;;;;1.70;1.10;;;;;;;;;;5021152;28;20046;-85
2023/08/09 00:36:15;;;;;;;1.90;1.10;;;;;;;;;;5022006;28;20026;-83
2023/08/09 00:38:41;;;;;;;5.85;1.17;;;;;;;;;;5021665;28;20054;-84
2023/08/09 00:41:07;;;;;;;2.17;1.20;;;;;;;;;;5007998;28;20025;-83
2023/08/09 00:43:32;;;;;;;3.65;1.20;;;;;;;;;;5007362;28;20098;-84
2023/08/09 00:45:58;;;;;;;4.00;1.25;;;;;;;;;;5010163;28;20132;-83
2023/08/09 00:48:24;;;;;;;2.45;1.33;;;;;;;;;;5014886;28;20038;-81
2023/08/09 00:50:50;;;;;;;3.88;1.23;;;;;;;;;;5007985;28;20045;-82
2023/08/09 00:53:16;;;;;;;4.80;1.20;;;;;;;;;;5001239;28;20034;-82
2023/08/09 00:55:41;;;;;;;1.70;1.20;;;;;;;;;;5011169;28;20534;-82
2023/08/09 00:58:07;;;;;;;2.38;1.20;;;;;;;;;;5009719;28;20122;-82
2023/08/09 01:00:33;;;;;;;3.30;1.30;;;;;;;;;;5006771;28;20111;-81
2023/08/09 01:02:59;;;;;;;2.30;1.30;;;;;;;;;;5001866;28;20137;-82
2023/08/09 01:05:37;;;;;;;4.80;1.65;;;;;;;;;;5012505;28;20416;-81
2023/08/09 01:08:19;;;;;;;2.50;1.20;;;;;;;;;;5022919;28;20046;-84
2023/08/09 01:11:24;;;;;;;2.00;1.27;;;;;;;;;;5010137;28;20469;-83
2023/08/09 01:13:52;;;;;;;2.10;1.17;;;;;;;;;;5022924;28;20072;-85
2023/08/09 01:16:20;;;;;;;2.50;1.30;;;;;;;;;;5007943;28;20034;-83
2023/08/09 01:18:48;;;;;;;7.72;1.30;;;;;;;;;;5025504;28;20041;-82
2023/08/09 01:21:18;;;;;;;1.60;1.20;;;;;;;;;;5001796;28;20065;-83
2023/08/09 01:23:45;;;;;;;2.22;1.20;;;;;;;;;;5013496;28;20030;-83
2023/08/09 01:26:10;;;;;;;3.50;1.20;;;;;;;;;;5016831;28;20046;-83
2023/08/09 01:28:36;;;;;;;2.55;1.23;;;;;;;;;;5010625;28;20034;-83
2023/08/09 01:31:03;;;;;;;1.75;1.15;;;;;;;;;;5022328;28;20026;-85
2023/08/09 01:33:29;;;;;;;2.05;1.13;;;;;;;;;;5016843;28;20046;-83
2023/08/09 01:36:04;;;;;;;1.60;1.10;;;;;;;;;;5019760;28;20038;-84
2023/08/09 01:38:35;;;;;;;2.38;1.30;;;;;;;;;;5010002;28;20038;-83
2023/08/09 01:41:02;;;;;;;2.72;1.33;;;;;;;;;;5018644;28;20025;-81
2023/08/09 01:43:30;;;;;;;4.07;1.40;;;;;;;;;;5013688;28;20026;-82
2023/08/09 01:45:55;;;;;;;3.58;1.23;;;;;;;;;;5009709;28;20034;-80
2023/08/09 01:48:21;;;;;;;2.80;1.33;;;;;;;;;;5020241;28;20026;-80
2023/08/09 01:50:48;;;;;;;1.75;1.30;;;;;;;;;;5006613;28;20052;-80
2023/08/09 01:53:14;;;;;;;1.83;1.20;;;;;;;;;;5008700;28;20042;-80
2023/08/09 01:55:40;;;;;;;2.10;1.30;;;;;;;;;;5015605;28;20033;-81
2023/08/09 01:58:06;;;;;;;1.88;1.20;;;;;;;;;;5009859;28;20034;-84
2023/08/09 02:00:32;;;;;;;1.80;1.40;;;;;;;;;;5016010;28;20037;-82
2023/08/09 02:02:58;;;;;;;3.28;1.20;;;;;;;;;;5020210;28;20056;-83
2023/08/09 02:05:24;;;;;;;3.63;1.33;;;;;;;;;;5018332;28;20090;-82
2023/08/09 02:07:50;;;;;;;3.38;1.20;;;;;;;;;;5014687;28;20030;-81
2023/08/09 02:10:17;;;;;;;2.10;1.20;;;;;;;;;;5021922;28;20058;-83
2023/08/09 02:12:47;;;;;;;3.03;1.20;;;;;;;;;;5007491;28;20053;-83
2023/08/09 02:15:15;;;;;;;1.60;1.20;;;;;;;;;;5018531;28;20037;-83
2023/08/09 02:17:43;;;;;;;4.47;1.40;;;;;;;;;;5009613;28;20042;-84
2023/08/09 02:20:09;;;;;;;1.95;1.30;;;;;;;;;;5000313;28;20098;-81
2023/08/09 02:22:36;;;;;;;2.72;1.20;;;;;;;;;;5006927;28;20038;-83
2023/08/09 02:25:03;;;;;;;1.65;1.20;;;;;;;;;;5011564;28;20034;-81
2023/08/09 02:27:28;;;;;;;2.20;1.20;;;;;;;;;;4988990;28;20525;-81
2023/08/09 02:29:55;;;;;;;1.88;1.13;;;;;;;;;;5019381;28;20029;-84
2023/08/09 02:32:21;;;;;;;3.65;1.17;;;;;;;;;;5008868;28;20034;-83
2023/08/09 02:34:46;;;;;;;2.47;1.25;;;;;;;;;;5021778;28;20092;-81
2023/08/09 02:37:12;;;;;;;2.45;1.40;;;;;;;;;;5017468;28;20405;-81
2023/08/09 02:39:37;;;;;;;2.38;1.40;;;;;;;;;;5018622;28;20034;-82
2023/08/09 02:42:03;;;;;;;5.25;1.10;;;;;;;;;;5014029;28;20041;-81
2023/08/09 02:44:32;;;;;;;2.97;1.30;;;;;;;;;;5001287;28;20112;-81
2023/08/09 02:46:59;;;;;;;2.53;1.23;;;;;;;;;;5020967;28;20044;-82
2023/08/09 02:49:24;;;;;;;3.00;1.30;;;;;;;;;;5018098;28;20125;-82
2023/08/09 02:51:50;;;;;;;2.03;1.30;;;;;;;;;;5019112;28;20042;-80
2023/08/09 02:54:15;;;;;;;1.52;1.10;;;;;;;;;;5011854;28;20041;-82
2023/08/09 02:56:41;;;;;;;2.50;1.10;;;;;;;;;;5005723;28;20034;-81
2023/08/09 02:59:06;;;;;;;1.95;1.02;;;;;;;;;;5003863;28;20038;-82
2023/08/09 03:01:33;;;;;;;2.67;1.20;;;;;;;;;;5014266;28;20109;-83
2023/08/09 03:03:59;;;;;;;1.80;1.30;;;;;;;;;;5020653;28;20038;-82
2023/08/09 03:06:25;;;;;;;1.60;1.30;;;;;;;;;;5009363;28;20030;-82
2023/08/09 03:08:51;;;;;;;4.28;1.30;;;;;;;;;;5019858;28;20066;-83
2023/08/09 03:11:21;;;;;;;1.65;1.10;;;;;;;;;;5025521;28;20034;-83
2023/08/09 03:13:46;;;;;;;2.20;1.17;;;;;;;;;;5013090;28;20034;-83
2023/08/09 03:16:12;;;;;;;1.95;1.10;;;;;;;;;;5012355;28;20494;-83
2023/08/09 03:18:39;;;;;;;2.40;1.20;;;;;;;;;;5026871;28;20041;-83
2023/08/09 03:21:05;;;;;;;2.00;1.27;;;;;;;;;;5012835;28;20030;-83
2023/08/09 03:23:31;;;;;;;3.65;1.27;;;;;;;;;;5018469;28;20038;-83
2023/08/09 03:25:56;;;;;;;1.60;1.13;;;;;;;;;;5022429;28;20034;-83
2023/08/09 03:28:23;;;;;;;2.28;1.27;;;;;;;;;;5017219;28;20058;-83
2023/08/09 03:30:49;;;;;;;1.90;1.25;;;;;;;;;;5025243;28;20034;-83
2023/08/09 03:33:15;;;;;;;1.55;1.25;;;;;;;;;;5007916;28;20039;-82
2023/08/09 03:35:41;;;;;;;2.15;1.00;;;;;;;;;;5003901;28;20025;-83
2023/08/09 03:38:06;;;;;;;2.03;1.30;;;;;;;;;;5024105;28;20044;-83
2023/08/09 03:40:32;;;;;;;3.92;1.20;;;;;;;;;;5006422;28;20080;-83
2023/08/09 03:42:58;;;;;;;2.40;1.10;;;;;;;;;;5012706;28;20038;-83
2023/08/09 03:45:23;;;;;;;2.33;1.30;;;;;;;;;;5009682;28;20041;-84
2023/08/09 03:47:50;;;;;;;3.72;1.23;;;;;;;;;;5010514;28;20037;-84
2023/08/09 03:50:17;;;;;;;2.65;1.23;;;;;;;;;;5015001;28;20119;-80
2023/08/09 03:52:42;;;;;;;1.58;1.20;;;;;;;;;;5008905;28;20044;-81
2023/08/09 03:55:09;;;;;;;2.60;1.20;;;;;;;;;;5002226;28;20549;-81
2023/08/09 03:57:34;;;;;;;2.97;1.38;;;;;;;;;;5012809;28;20038;-83
2023/08/09 04:00:02;;;;;;;2.45;1.30;;;;;;;;;;5017489;28;20556;-81
2023/08/09 04:02:37;;;;;;;2.10;1.30;;;;;;;;;;5015103;28;20084;-83
2023/08/09 04:05:05;;;;;;;1.80;1.30;;;;;;;;;;5007806;28;20034;-82
2023/08/09 04:07:31;;;;;;;3.53;1.38;;;;;;;;;;5024125;28;20031;-83
2023/08/09 04:09:56;;;;;;;3.88;1.30;;;;;;;;;;5018669;28;20037;-83
2023/08/09 04:12:22;;;;;;;2.17;1.40;;;;;;;;;;5014560;28;20046;-84
2023/08/09 04:14:47;;;;;;;3.72;1.20;;;;;;;;;;5019078;28;20050;-84
2023/08/09 04:17:13;;;;;;;2.08;1.40;;;;;;;;;;5022941;28;20033;-83
2023/08/09 04:19:39;;;;;;;2.05;1.10;;;;;;;;;;5009473;28;20129;-84
2023/08/09 04:22:04;;;;;;;2.55;1.30;;;;;;;;;;5004485;28;20066;-84
2023/08/09 04:24:30;;;;;;;1.88;1.30;;;;;;;;;;5015881;28;20045;-82
2023/08/09 04:26:55;;;;;;;1.92;1.30;;;;;;;;;;5035841;23;20037;-82
2023/08/09 04:29:21;;;;;;;1.70;1.15;;;;;;;;;;5035286;28;20431;-80
2023/08/09 04:31:48;;;;;;;2.70;1.40;;;;;;;;;;5053529;28;20045;-80
2023/08/09 04:34:15;;;;;;;3.58;1.27;;;;;;;;;;5049650;28;20107;-81
2023/08/09 04:36:40;;;;;;;3.05;1.30;;;;;;;;;;5051079;28;20041;-81
2023/08/09 04:39:09;;;;;;;1.90;1.20;;;;;;;;;;5049615;28;20049;-81
2023/08/09 04:41:35;;;;;;;2.80;1.20;;;;;;;;;;5053527;28;20047;-81
2023/08/09 04:44:00;;;;;;;1.70;1.20;;;;;;;;;;5053375;28;20041;-81
2023/08/09 04:46:26;;;;;;;2.83;1.20;;;;;;;;;;5053908;28;20176;-81
2023/08/09 04:48:52;;;;;;;4.65;1.30;;;;;;;;;;5052914;28;20569;-80
2023/08/09 04:51:18;;;;;;;1.63;1.23;;;;;;;;;;5056515;28;20033;-80
2023/08/09 04:53:44;;;;;;;3.03;1.40;;;;;;;;;;5051638;28;20040;-80
2023/08/09 04:56:10;;;;;;;4.13;1.40;;;;;;;;;;5053450;28;20033;-82
2023/08/09 04:58:35;;;;;;;2.25;1.30;;;;;;;;;;5052539;28;20480;-80
2023/08/09 05:01:01;;;;;;;2.88;1.38;;;;;;;;;;5053693;28;20037;-80
2023/08/09 05:03:26;;;;;;;1.65;1.30;;;;;;;;;;5057394;28;20040;-80
2023/08/09 05:05:52;;;;;;;1.88;1.40;;;;;;;;;;5054372;28;20119;-80
2023/08/09 05:08:17;;;;;;;2.78;1.35;;;;;;;;;;5052889;28;20037;-80
2023/08/09 05:10:43;;;;;;;2.20;1.25;;;;;;;;;;5054082;28;20045;-81
2023/08/09 05:13:08;;;;;;;1.77;1.30;;;;;;;;;;5053076;28;20041;-80
2023/08/09 05:15:34;;;;;;;1.70;1.38;;;;;;;;;;5053703;28;20033;-81
2023/08/09 05:17:59;;;;;;;2.40;1.27;;;;;;;;;;5053243;28;20068;-80
2023/08/09 05:20:25;;;;;;;2.63;1.20;;;;;;;;;;5052705;28;20044;-81
2023/08/09 05:22:50;;;;;;;3.70;1.40;;;;;;;;;;5053295;28;20033;-80
2023/08/09 05:25:17;;;;;;;2.78;1.40;;;;;;;;;;5048497;28;20037;-79
2023/08/09 05:27:47;;;;;;;2.65;1.35;;;;;;;;;;5053964;28;20033;-80
2023/08/09 05:30:13;;;;;;;2.55;1.42;;;;;;;;;;5053067;28;20052;-80
2023/08/09 05:32:39;;;;;;;2.33;1.30;;;;;;;;;;5051221;28;20032;-80
2023/08/09 05:35:05;;;;;;;3.20;1.42;;;;;;;;;;5053676;28;20041;-81
2023/08/09 05:37:30;;;;;;;2.40;1.40;;;;;;;;;;5053743;28;20443;-80
2023/08/09 05:39:56;;;;;;;3.70;1.27;;;;;;;;;;5058871;28;20041;-80
2023/08/09 05:42:21;;;;;;;2.50;1.58;;;;;;;;;;5052033;28;20037;-80
2023/08/09 05:44:47;;;;;;;4.32;1.35;;;;;;;;;;5051682;28;20044;-80
2023/08/09 05:47:12;;;;;;;2.45;1.27;;;;;;;;;;5053257;28;20563;-80
2023/08/09 05:49:38;;;;;;;3.38;1.27;;;;;;;;;;5053217;28;20101;-80
2023/08/09 05:52:04;;;;;;;3.15;1.30;;;;;;;;;;5053001;28;20033;-81
2023/08/09 05:54:29;;;;;;;2.55;1.40;;;;;;;;;;5058097;28;20072;-80
2023/08/09 05:56:55;;;;;;;2.58;1.48;;;;;;;;;;5055906;28;20033;-80
2023/08/09 05:59:20;;;;;;;3.45;1.65;;;;;;;;;;5056298;28;20117;-80
2023/08/09 06:01:46;;;;;;;3.70;1.60;;;;;;;;;;5056029;28;20024;-81
2023/08/09 06:04:12;;;;;;;2.65;1.40;;;;;;;;;;5056208;28;20055;-80
2023/08/09 06:06:37;;;;;;;2.80;1.60;;;;;;;;;;5057843;28;20064;-80
2023/08/09 06:09:05;;;;;;;8.95;2.30;;;;;;;;;;5053181;28;20106;-80
2023/08/09 06:11:32;;;;;;;2.35;1.48;;;;;;;;;;5054839;28;20090;-80
2023/08/09 06:13:59;;;;;;;2.22;1.50;;;;;;;;;;5057200;28;20041;-81
2023/08/09 06:16:25;;;;;;;2.75;1.40;;;;;;;;;;5058344;28;20559;-80
2023/08/09 06:18:50;;;;;;;2.63;1.50;;;;;;;;;;5056296;28;20071;-82
2023/08/09 06:21:15;;;;;;;3.22;1.50;;;;;;;;;;5070274;28;20063;-80
2023/08/09 06:23:41;;;;;;;2.95;1.60;;;;;;;;;;5060219;28;20041;-82
2023/08/09 06:26:07;;;;;;;2.85;1.70;;;;;;;;;;5059182;28;20044;-81
2023/08/09 06:28:33;;;;;;;2.33;1.38;;;;;;;;;;5052473;28;20059;-82
2023/08/09 06:30:58;;;;;;;2.15;1.58;;;;;;;;;;5066140;28;20040;-81
2023/08/09 06:33:24;;;;;;;2.67;1.50;;;;;;;;;;5065675;28;20047;-82
2023/08/09 06:35:49;;;;;;;2.97;2.05;;;;;;;;;;5065270;28;20033;-81
2023/08/09 06:38:15;;;;;;;2.17;1.40;;;;;;;;;;5064959;28;20037;-82
2023/08/09 06:40:40;;;;;;;2.10;1.60;;;;;;;;;;5065513;28;20626;-83
2023/08/09 06:43:06;;;;;;;2.45;1.50;;;;;;;;;;5065920;28;20033;-82
2023/08/09 06:45:33;;;;;;;3.58;1.60;;;;;;;;;;5054623;28;20032;-81
2023/08/09 06:47:59;;;;;;;2.80;1.58;;;;;;;;;;5059167;28;20106;-80
2023/08/09 06:50:26;;;;;;;2.63;1.70;;;;;;;;;;5057392;28;20665;-80
2023/08/09 06:52:52;;;;;;;3.65;1.50;;;;;;;;;;5057186;28;20033;-81
2023/08/09 06:55:18;;;;;;;2.53;1.67;;;;;;;;;;5067460;28;20123;-81
2023/08/09 06:57:43;;;;;;;3.47;2.25;;;;;;;;;;5056645;28;20060;-81
2023/08/09 07:00:15;;;;;;;3.30;2.35;;;;;;;;;;5054449;28;20254;-81
2023/08/09 07:02:42;;;;;;;3.05;2.00;;;;;;;;;;5057570;28;20045;-81
2023/08/09 07:05:14;;;;;;;4.35;1.75;;;;;;;;;;5062717;28;20029;-83
2023/08/09 07:07:41;;;;;;;2.40;1.77;;;;;;;;;;5062018;28;20041;-81
2023/08/09 07:10:07;;;;;;;2.80;1.60;;;;;;;;;;5064847;28;20033;-82
2023/08/09 07:12:34;;;;;;;3.80;1.70;;;;;;;;;;5066025;28;20045;-81
2023/08/09 07:15:00;;;;;;;2.95;1.45;;;;;;;;;;5064094;28;20036;-84
2023/08/09 07:17:26;;;;;;;3.33;1.60;;;;;;;;;;5061789;28;20029;-81
2023/08/09 07:19:51;;;;;;;3.58;1.50;;;;;;;;;;5063172;28;20453;-80
2023/08/09 07:22:16;;;;;;;3.90;1.70;;;;;;;;;;5063715;28;20037;-83
2023/08/09 07:24:42;;;;;;;4.07;1.67;;;;;;;;;;5061994;28;20109;-83
2023/08/09 07:27:07;;;;;;;5.03;1.80;;;;;;;;;;5063617;28;20040;-82
2023/08/09 07:29:33;;;;;;;2.83;1.73;;;;;;;;;;5071479;28;20450;-81
2023/08/09 07:31:58;;;;;;;5.05;1.80;;;;;;;;;;5064233;28;20041;-82
2023/08/09 07:34:24;;;;;;;2.47;1.50;;;;;;;;;;5064299;28;20039;-82
2023/08/09 07:36:49;;;;;;;2.60;1.70;;;;;;;;;;5063702;28;20041;-81
2023/08/09 07:39:15;;;;;;;2.78;1.70;;;;;;;;;;5066391;28;20474;-83
2023/08/09 07:41:40;;;;;;;4.07;1.65;;;;;;;;;;5067709;28;20036;-82
2023/08/09 07:44:06;;;;;;;2.80;1.80;;;;;;;;;;5065288;28;20125;-81
2023/08/09 07:46:31;;;;;;;4.65;1.63;;;;;;;;;;5065356;28;20688;-82
2023/08/09 07:48:57;;;;;;;2.30;1.50;;;;;;;;;;5063992;28;20025;-81
2023/08/09 07:51:22;;;;;;;3.22;1.60;;;;;;;;;;5064752;28;20523;-81
2023/08/09 07:53:47;;;;;;;4.75;1.90;;;;;;;;;;5063474;28;20044;-82
2023/08/09 07:56:14;;;;;;;2.75;1.70;;;;;;;;;;5065548;28;20060;-82
2023/08/09 07:58:39;;;;;;;2.42;1.50;;;;;;;;;;5065100;28;20100;-80
2023/08/09 08:01:05;;;;;;;2.22;1.67;;;;;;;;;;5062231;28;20057;-82
2023/08/09 08:03:31;;;;;;;1.85;1.45;;;;;;;;;;5062478;28;20060;-81
2023/08/09 08:05:57;;;;;;;4.13;1.70;;;;;;;;;;5064007;28;20044;-82
2023/08/09 08:08:23;;;;;;;3.58;1.50;;;;;;;;;;5063736;28;20041;-82
2023/08/09 08:10:49;;;;;;;2.55;1.55;;;;;;;;;;5061565;28;20033;-80
2023/08/09 08:13:14;;;;;;;4.47;1.55;;;;;;;;;;5063585;28;20029;-81
2023/08/09 08:15:40;;;;;;;5.07;1.60;;;;;;;;;;5064060;28;20100;-84
2023/08/09 08:18:06;;;;;;;2.20;1.60;;;;;;;;;;5063651;28;20090;-83
2023/08/09 08:20:32;;;;;;;2.17;1.42;;;;;;;;;;5064274;28;20021;-82
2023/08/09 08:22:58;;;;;;;5.43;1.70;;;;;;;;;;5062018;28;20401;-82
2023/08/09 08:25:24;;;;;;;3.13;1.75;;;;;;;;;;5063779;28;20029;-84
2023/08/09 08:27:50;;;;;;;3.17;1.85;;;;;;;;;;5063718;28;20421;-83
2023/08/09 08:30:18;;;;;;;3.50;1.90;;;;;;;;;;5064470;28;20037;-82
2023/08/09 08:32:48;;;;;;;5.72;2.00;;;;;;;;;;5063295;28;20072;-83
2023/08/09 08:35:14;;;;;;;3.70;1.70;;;;;;;;;;5062253;28;20552;-82
2023/08/09 08:37:40;;;;;;;4.65;2.15;;;;;;;;;;5061691;28;20515;-83
2023/08/09 08:40:09;;;;;;;3.50;2.10;;;;;;;;;;5063435;28;20025;-82
2023/08/09 08:42:35;;;;;;;2.70;1.90;;;;;;;;;;5062962;28;20021;-83
2023/08/09 08:45:09;;;;;;;3.67;1.95;;;;;;;;;;5065356;28;20029;-81
2023/08/09 08:47:37;;;;;;;4.43;2.30;;;;;;;;;;5064731;28;20045;-83
2023/08/09 08:50:03;;;;;;;3.72;2.13;;;;;;;;;;5061847;28;20035;-83
2023/08/09 08:52:30;;;;;;;3.45;1.75;;;;;;;;;;5064001;28;20096;-83
2023/08/09 08:54:55;;;;;;;2.90;1.70;;;;;;;;;;5055814;28;20047;-82
2023/08/09 08:57:21;;;;;;;3.10;1.80;;;;;;;;;;5058740;28;20037;-83
2023/08/09 08:59:47;;;;;;;3.53;1.90;;;;;;;;;;5061427;28;20030;-82
2023/08/09 09:02:13;;;;;;;3.78;1.73;;;;;;;;;;5056640;28;20045;-82
2023/08/09 09:04:38;;;;;;;3.42;1.80;;;;;;;;;;5061497;28;20060;-81
2023/08/09 09:07:05;;;;;;;4.32;1.80;;;;;;;;;;5055818;28;20033;-81
2023/08/09 09:09:30;;;;;;;2.08;1.50;;;;;;;;;;5055831;28;20039;-82
2023/08/09 09:12:00;;;;;;;2.17;1.80;;;;;;;;;;5056636;28;20061;-82
2023/08/09 09:14:25;;;;;;;2.60;1.80;;;;;;;;;;5042592;28;20408;-83
2023/08/09 09:16:51;;;;;;;2.40;1.83;;;;;;;;;;5056172;28;20066;-80
2023/08/09 09:19:16;;;;;;;2.70;1.80;;;;;;;;;;5053712;28;20037;-81
2023/08/09 09:21:42;;;;;;;4.63;1.80;;;;;;;;;;5050344;28;20028;-81
2023/08/09 09:24:09;;;;;;;3.38;1.70;;;;;;;;;;5058984;28;20084;-82
2023/08/09 09:26:39;;;;;;;3.85;1.77;;;;;;;;;;5056232;28;20037;-82
2023/08/09 09:29:09;;;;;;;3.65;1.75;;;;;;;;;;5057460;28;20040;-82
2023/08/09 09:31:39;;;;;;;2.70;1.58;;;;;;;;;;5066737;28;20096;-82
2023/08/09 09:34:11;;;;;;;3.95;1.75;;;;;;;;;;5059130;28;20039;-81
2023/08/09 09:36:48;;;;;;;2.25;1.73;;;;;;;;;;5067241;28;20067;-84
2023/08/09 09:39:14;;;;;;;2.30;1.60;;;;;;;;;;5067583;28;20127;-82
2023/08/09 09:41:46;;;;;;;3.25;1.90;;;;;;;;;;5066384;28;20020;-84
2023/08/09 09:44:17;;;;;;;2.25;1.58;;;;;;;;;;5061201;28;20033;-84
2023/08/09 09:46:42;;;;;;;3.65;2.05;;;;;;;;;;5064592;28;20043;-82
2023/08/09 09:49:08;;;;;;;5.00;2.20;;;;;;;;;;5067753;28;20500;-84
2023/08/09 09:51:35;;;;;;;3.70;1.80;;;;;;;;;;5064190;28;20040;-82
2023/08/09 09:54:01;;;;;;;2.35;1.60;;;;;;;;;;5062415;28;20037;-81
2023/08/09 09:56:26;;;;;;;3.05;1.75;;;;;;;;;;5062686;28;20102;-81
2023/08/09 09:58:52;;;;;;;3.22;1.65;;;;;;;;;;5065627;28;20407;-81
2023/08/09 10:01:23;;;;;;;2.72;1.70;;;;;;;;;;5065914;28;20055;-81
2023/08/09 10:03:52;;;;;;;2.22;1.75;;;;;;;;;;5046942;28;20087;-82
2023/08/09 10:06:24;;;;;;;3.13;1.60;;;;;;;;;;5064166;28;20101;-81
2023/08/09 10:08:55;;;;;;;5.15;1.83;;;;;;;;;;5062264;28;20105;-80
2023/08/09 10:11:23;;;;;;;3.70;2.28;;;;;;;;;;5061881;28;20064;-82
2023/08/09 10:13:50;;;;;;;2.78;1.80;;;;;;;;;;5059212;28;20516;-84
2023/08/09 10:16:18;;;;;;;3.05;1.55;;;;;;;;;;5065632;28;20037;-81
2023/08/09 10:18:49;;;;;;;2.67;1.70;;;;;;;;;;5064603;28;20048;-83
2023/08/09 10:21:17;;;;;;;3.00;1.73;;;;;;;;;;5064477;28;20044;-83
2023/08/09 10:24:08;;;;;;;2.47;1.55;;;;;;;;;;5059227;28;20041;-82
2023/08/09 10:26:36;;;;;;;2.85;1.50;;;;;;;;;;5060792;28;20041;-81
2023/08/09 10:29:10;;;;;;;2.00;1.50;;;;;;;;;;5059643;28;20100;-81
2023/08/09 10:31:56;;;;;;;2.60;1.70;;;;;;;;;;5075765;28;20038;-81
2023/08/09 10:34:40;;;;;;;8.10;1.85;;;;;;;;;;5056361;28;20037;-82
2023/08/09 10:37:06;;;;;;;2.55;1.20;;;;;;;;;;5062807;28;20032;-82
2023/08/09 10:39:33;;;;;;;3.30;1.67;;;;;;;;;;5049180;28;20041;-82
2023/08/09 10:42:00;;;;;;;2.70;1.77;;;;;;;;;;5067133;28;20036;-82
2023/08/09 10:44:41;;;;;;;2.58;1.65;;;;;;;;;;5068963;28;20041;-82
2023/08/09 10:47:20;;;;;;;2.50;1.40;;;;;;;;;;5081104;28;20079;-81
2023/08/09 10:49:49;;;;;;;2.25;1.40;;;;;;;;;;5065767;28;20132;-84
2023/08/09 10:52:16;;;;;;;3.15;1.88;;;;;;;;;;5067823;28;20059;-82
2023/08/09 10:54:43;;;;;;;1.88;1.52;;;;;;;;;;5067943;28;20055;-84
2023/08/09 10:57:10;;;;;;;2.08;1.50;;;;;;;;;;5068873;28;20032;-84
2023/08/09 10:59:38;;;;;;;3.30;1.52;;;;;;;;;;5068518;28;20056;-83
2023/08/09 11:02:04;;;;;;;3.30;1.70;;;;;;;;;;5065818;28;20037;-83
2023/08/09 11:04:30;;;;;;;2.88;1.63;;;;;;;;;;5064695;28;20037;-85
2023/08/09 11:06:56;;;;;;;4.82;3.10;;;;;;;;;;5067382;28;20040;-83
2023/08/09 11:09:22;;;;;;;6.13;1.90;;;;;;;;;;5069875;28;20120;-84
2023/08/09 11:11:49;;;;;;;3.53;2.00;;;;;;;;;;5066946;28;20037;-84
2023/08/09 11:14:17;;;;;;;3.15;1.58;;;;;;;;;;5067212;28;20064;-83
2023/08/09 11:16:44;;;;;;;2.00;1.50;;;;;;;;;;5065517;28;20032;-84
2023/08/09 11:19:14;;;;;;;2.83;1.55;;;;;;;;;;5067395;28;20037;-83
2023/08/09 11:21:52;;;;;;;3.45;1.55;;;;;;;;;;5065982;28;20072;-82
2023/08/09 11:24:21;;;;;;;3.05;1.55;;;;;;;;;;5068075;28;20087;-82
2023/08/09 11:26:57;;;;;;;3.65;1.80;;;;;;;;;;5068944;28;20025;-84
2023/08/09 11:29:25;;;;;;;3.35;1.70;;;;;;;;;;5067674;28;20051;-84
2023/08/09 11:31:53;;;;;;;3.78;1.70;;;;;;;;;;5069504;28;20112;-84
2023/08/09 11:34:21;;;;;;;2.70;1.50;;;;;;;;;;5069589;28;20060;-83
2023/08/09 11:36:48;;;;;;;2.63;1.73;;;;;;;;;;5069185;28;20037;-82
2023/08/09 11:39:14;;;;;;;2.92;1.77;;;;;;;;;;5083477;28;20045;-85
2023/08/09 11:41:46;;;;;;;2.65;1.70;;;;;;;;;;5070379;28;20442;-84
2023/08/09 11:44:14;;;;;;;3.15;1.52;;;;;;;;;;5068877;28;20037;-85
2023/08/09 11:46:44;;;;;;;4.13;2.40;;;;;;;;;;5072721;28;20127;-83
2023/08/09 11:49:09;;;;;;;2.65;1.83;;;;;;;;;;5065540;28;20100;-84
2023/08/09 11:51:36;;;;;;;3.08;1.85;;;;;;;;;;5068697;28;20037;-84
2023/08/09 11:54:02;;;;;;;3.60;1.85;;;;;;;;;;5067038;28;20037;-84
2023/08/09 11:56:36;;;;;;;4.63;1.92;;;;;;;;;;5068492;28;20040;-84
2023/08/09 11:59:04;;;;;;;4.80;2.00;;;;;;;;;;5082301;28;20029;-84
2023/08/09 12:01:44;;;;;;;3.85;2.00;;;;;;;;;;5065589;28;20025;-85
2023/08/09 12:04:13;;;;;;;2.97;1.80;;;;;;;;;;5081473;28;20028;-85
2023/08/09 12:06:41;;;;;;;2.28;1.80;;;;;;;;;;5065781;28;20040;-83
2023/08/09 12:09:34;;;;;;;2.50;1.70;;;;;;;;;;5050664;28;20452;-85
2023/08/09 12:12:34;;;;;;;2.90;1.75;;;;;;;;;;5068503;28;20049;-84
2023/08/09 12:15:00;;;;;;;4.30;1.77;;;;;;;;;;5067645;28;20041;-84
2023/08/09 12:17:27;;;;;;;4.10;1.95;;;;;;;;;;5068111;28;20036;-83
2023/08/09 12:19:58;;;;;;;2.83;1.88;;;;;;;;;;5067049;28;20074;-83
2023/08/09 12:22:25;;;;;;;4.20;1.88;;;;;;;;;;5067715;28;20079;-83
2023/08/09 12:24:51;;;;;;;2.25;1.60;;;;;;;;;;5067883;28;20055;-84
2023/08/09 12:27:19;;;;;;;2.35;1.50;;;;;;;;;;5067463;28;20067;-83
2023/08/09 12:29:45;;;;;;;2.60;1.60;;;;;;;;;;5068686;28;20052;-84
2023/08/09 12:32:11;;;;;;;3.53;1.90;;;;;;;;;;5080013;28;20037;-83
2023/08/09 12:34:36;;;;;;;1.90;1.52;;;;;;;;;;5068591;28;20044;-84
2023/08/09 12:37:01;;;;;;;4.32;1.70;;;;;;;;;;5068068;28;20679;-83
2023/08/09 12:39:27;;;;;;;4.03;1.70;;;;;;;;;;5067555;28;20115;-84
2023/08/09 12:41:53;;;;;;;2.10;1.40;;;;;;;;;;5065299;28;20139;-83
2023/08/09 12:44:19;;;;;;;2.95;1.60;;;;;;;;;;5063359;28;20037;-83
2023/08/09 12:46:44;;;;;;;2.75;1.58;;;;;;;;;;5066368;28;20037;-83
2023/08/09 12:49:10;;;;;;;3.42;1.60;;;;;;;;;;5066946;28;20054;-84
2023/08/09 12:51:37;;;;;;;3.30;1.40;;;;;;;;;;5065520;28;20041;-83
2023/08/09 12:54:03;;;;;;;2.40;1.45;;;;;;;;;;5067452;28;20037;-83
2023/08/09 12:56:28;;;;;;;3.22;1.45;;;;;;;;;;5067143;28;20039;-83
2023/08/09 12:58:54;;;;;;;3.03;1.65;;;;;;;;;;5067786;28;20033;-84
2023/08/09 13:01:20;;;;;;;2.47;1.52;;;;;;;;;;5066609;28;20029;-84
2023/08/09 13:03:47;;;;;;;3.30;1.90;;;;;;;;;;5066288;28;20564;-83
2023/08/09 13:06:17;;;;;;;2.78;1.70;;;;;;;;;;5074202;28;20261;-84
2023/08/09 13:08:44;;;;;;;2.55;1.45;;;;;;;;;;5077911;28;20048;-83
2023/08/09 13:11:10;;;;;;;3.83;1.80;;;;;;;;;;5070269;28;20052;-84
2023/08/09 13:13:36;;;;;;;2.80;1.95;;;;;;;;;;5071819;28;20494;-84
2023/08/09 13:16:04;;;;;;;3.63;1.60;;;;;;;;;;5072314;28;20060;-83
2023/08/09 13:18:30;;;;;;;6.03;1.67;;;;;;;;;;5069139;28;20073;-84
2023/08/09 13:20:55;;;;;;;3.40;2.70;;;;;;;;;;5057554;28;20036;-84
2023/08/09 13:23:21;;;;;;;4.10;2.70;;;;;;;;;;5071400;28;20080;-85
2023/08/09 13:25:46;;;;;;;2.38;1.80;;;;;;;;;;5071645;28;20107;-83
2023/08/09 13:28:12;;;;;;;2.42;1.48;;;;;;;;;;5071279;28;20100;-83
2023/08/09 13:30:37;;;;;;;2.35;1.85;;;;;;;;;;5071859;28;20037;-83
2023/08/09 13:33:03;;;;;;;2.33;1.70;;;;;;;;;;5070832;28;20071;-83
2023/08/09 13:35:29;;;;;;;2.05;1.60;;;;;;;;;;5071213;28;20062;-84
2023/08/09 13:37:55;;;;;;;2.10;1.65;;;;;;;;;;5071629;28;20067;-84
2023/08/09 13:40:20;;;;;;;2.40;1.70;;;;;;;;;;5070913;28;20063;-83
2023/08/09 13:42:46;;;;;;;2.20;1.52;;;;;;;;;;5071394;28;20048;-81
2023/08/09 13:45:12;;;;;;;2.38;1.52;;;;;;;;;;5070941;28;20044;-82
2023/08/09 13:47:37;;;;;;;2.53;1.45;;;;;;;;;;5070739;28;20036;-83
2023/08/09 13:50:07;;;;;;;2.03;1.50;;;;;;;;;;5070146;28;20043;-84
2023/08/09 13:52:32;;;;;;;2.95;1.70;;;;;;;;;;5069728;28;20033;-83
2023/08/09 13:55:00;;;;;;;3.55;1.77;;;;;;;;;;5070933;28;20100;-84
2023/08/09 13:57:26;;;;;;;2.72;1.80;;;;;;;;;;5069954;28;20087;-84
2023/08/09 13:59:53;;;;;;;2.03;1.60;;;;;;;;;;5070150;28;20386;-83
2023/08/09 14:02:20;;;;;;;2.42;1.40;;;;;;;;;;5069281;28;20052;-83
2023/08/09 14:04:45;;;;;;;2.00;1.40;;;;;;;;;;5060663;28;20045;-82
2023/08/09 14:07:11;;;;;;;1.42;1.10;;;;;;;;;;5069434;28;20097;-83
2023/08/09 14:09:36;;;;;;;2.55;1.30;;;;;;;;;;5070602;28;20037;-84
2023/08/09 14:12:02;;;;;;;2.35;1.40;;;;;;;;;;5070746;28;20037;-84
2023/08/09 14:14:28;;;;;;;2.30;1.48;;;;;;;;;;5069290;28;20041;-83
2023/08/09 14:16:53;;;;;;;3.15;1.48;;;;;;;;;;5074460;28;20113;-84
2023/08/09 14:19:21;;;;;;;2.05;1.40;;;;;;;;;;5068648;28;20435;-84
2023/08/09 14:21:48;;;;;;;2.50;1.50;;;;;;;;;;5066713;28;20112;-83
2023/08/09 14:24:14;;;;;;;1.88;1.30;;;;;;;;;;5069426;28;20104;-83
2023/08/09 14:26:40;;;;;;;3.13;1.38;;;;;;;;;;5067360;28;20041;-84
2023/08/09 14:29:07;;;;;;;2.22;1.40;;;;;;;;;;5069159;28;20029;-84
2023/08/09 14:31:33;;;;;;;3.95;1.50;;;;;;;;;;5068707;28;20036;-85
2023/08/09 14:33:59;;;;;;;1.65;1.30;;;;;;;;;;5069676;28;20124;-84
2023/08/09 14:36:25;;;;;;;2.63;1.30;;;;;;;;;;5069364;28;20072;-84
2023/08/09 14:38:50;;;;;;;2.35;1.20;;;;;;;;;;5048559;28;20049;-83
2023/08/09 14:41:16;;;;;;;2.63;1.50;;;;;;;;;;5078061;28;20033;-83
2023/08/09 14:43:42;;;;;;;2.97;1.70;;;;;;;;;;5067230;28;20396;-84